Time;durP1;ratioP1;P1;durP2;ratioP2;P2;SDS_P1;SDS_P2;PMS_P1;PMS_P2;Temp;Humidity;BMP_temperature;BMP_pressure;BME280_temperature;BME280_humidity;BME280_pressure;Samples;Min_cycle;Max_cycle;Signal;HPM_P1;HPM_P2
2021/06/06 00:01:24;;;;;;;4.07;1.05;;;14.20;99.90;;;;;;5112907;27;20040;-73
2021/06/06 00:03:53;;;;;;;5.45;1.10;;;14.20;99.90;;;;;;5091985;28;20138;-73
2021/06/06 00:06:30;;;;;;;3.17;0.98;;;14.20;99.90;;;;;;5113249;27;20099;-73
2021/06/06 00:08:57;;;;;;;3.30;1.20;;;14.20;99.90;;;;;;5116086;27;20031;-73
2021/06/06 00:11:32;;;;;;;1.92;1.02;;;14.20;99.90;;;;;;5113176;27;20027;-73
2021/06/06 00:14:00;;;;;;;5.20;1.35;;;14.20;99.90;;;;;;5113143;28;20759;-73
2021/06/06 00:16:37;;;;;;;7.88;1.38;;;14.10;99.90;;;;;;5089176;28;20027;-73
2021/06/06 00:19:03;;;;;;;4.13;1.15;;;14.20;99.90;;;;;;5093770;28;20084;-73
2021/06/06 00:21:30;;;;;;;6.95;1.35;;;14.10;99.90;;;;;;5111583;28;20041;-73
2021/06/06 00:23:56;;;;;;;4.95;1.42;;;14.10;99.90;;;;;;5113921;27;20054;-73
2021/06/06 00:26:23;;;;;;;7.45;1.30;;;14.00;99.90;;;;;;5127043;27;20040;-73
2021/06/06 00:28:48;;;;;;;6.50;1.25;;;14.00;99.90;;;;;;5118717;27;20115;-73
2021/06/06 00:31:15;;;;;;;5.97;1.30;;;14.00;99.90;;;;;;5119474;27;20542;-73
2021/06/06 00:33:40;;;;;;;6.60;1.38;;;14.00;99.90;;;;;;5115756;27;20401;-73
2021/06/06 00:36:07;;;;;;;5.82;1.73;;;13.80;99.90;;;;;;5114523;27;20039;-73
2021/06/06 00:38:33;;;;;;;9.48;2.67;;;13.80;99.90;;;;;;5115217;27;20113;-73
2021/06/06 00:40:59;;;;;;;7.55;2.88;;;13.80;99.90;;;;;;5117319;27;20251;-73
2021/06/06 00:43:27;;;;;;;3.47;1.30;;;13.70;99.90;;;;;;5102294;28;20032;-73
2021/06/06 00:45:53;;;;;;;4.32;1.48;;;13.70;99.90;;;;;;5098428;27;20055;-73
2021/06/06 00:48:19;;;;;;;10.88;4.18;;;13.70;99.90;;;;;;5122676;27;20035;-73
2021/06/06 00:50:48;;;;;;;7.90;2.65;;;13.70;99.90;;;;;;5115161;27;20035;-73
2021/06/06 00:53:39;;;;;;;7.93;1.70;;;13.60;99.90;;;;;;5122301;27;20123;-73
2021/06/06 00:56:08;;;;;;;6.38;2.15;;;13.60;99.90;;;;;;5116499;27;20088;-73
2021/06/06 00:58:35;;;;;;;8.30;2.70;;;13.50;99.90;;;;;;5112506;27;20135;-73
2021/06/06 01:01:02;;;;;;;7.47;2.65;;;13.60;99.90;;;;;;5117033;27;20036;-73
2021/06/06 01:03:28;;;;;;;3.75;2.15;;;13.50;99.90;;;;;;5112267;27;20050;-73
2021/06/06 01:06:21;;;;;;;4.63;1.50;;;13.50;99.90;;;;;;5114765;27;20032;-73
2021/06/06 01:08:47;;;;;;;6.15;1.67;;;13.50;99.90;;;;;;5127453;27;20573;-73
2021/06/06 01:11:36;;;;;;;7.22;1.85;;;13.50;99.90;;;;;;5120051;27;20023;-73
2021/06/06 01:14:34;;;;;;;3.78;1.80;;;13.50;99.90;;;;;;5085564;27;20046;-73
2021/06/06 01:17:08;;;;;;;5.55;2.78;;;13.40;99.90;;;;;;5111903;27;20054;-73
2021/06/06 01:19:33;;;;;;;7.03;2.03;;;13.40;99.90;;;;;;5118258;27;20380;-73
2021/06/06 01:22:27;;;;;;;4.57;1.60;;;13.40;99.90;;;;;;5117099;27;20034;-73
2021/06/06 01:24:58;;;;;;;5.03;1.38;;;13.40;99.90;;;;;;5110166;27;20036;-73
2021/06/06 01:27:29;;;;;;;4.25;1.38;;;13.40;99.90;;;;;;5113395;27;20047;-73
2021/06/06 01:30:06;;;;;;;3.70;1.38;;;13.30;99.90;;;;;;5114146;27;20039;-73
2021/06/06 01:32:46;;;;;;;5.00;1.38;;;13.30;99.90;;;;;;5119750;27;20068;-73
2021/06/06 01:35:20;;;;;;;4.20;1.45;;;13.30;99.90;;;;;;5114077;27;20477;-73
2021/06/06 01:37:51;;;;;;;3.90;1.60;;;13.40;99.90;;;;;;5112495;27;20571;-72
2021/06/06 01:40:24;;;;;;;6.43;2.42;;;13.40;99.90;;;;;;5121294;27;20035;-73
2021/06/06 01:42:58;;;;;;;6.20;2.35;;;13.40;99.90;;;;;;5123135;27;20451;-73
2021/06/06 01:45:34;;;;;;;7.47;2.65;;;13.40;99.90;;;;;;5114493;27;20035;-73
2021/06/06 01:48:07;;;;;;;6.78;2.45;;;13.40;99.90;;;;;;5121876;27;20079;-73
2021/06/06 01:50:39;;;;;;;8.15;2.80;;;13.40;99.90;;;;;;5119472;27;20895;-73
2021/06/06 01:53:07;;;;;;;5.07;2.50;;;13.40;99.90;;;;;;5120135;27;20152;-73
2021/06/06 01:55:40;;;;;;;5.97;2.45;;;13.40;99.90;;;;;;5105038;27;20051;-73
2021/06/06 01:58:06;;;;;;;8.18;2.83;;;13.30;99.90;;;;;;5126128;27;20035;-73
2021/06/06 02:00:36;;;;;;;8.25;3.72;;;13.30;99.90;;;;;;5118704;27;20034;-73
2021/06/06 02:03:03;;;;;;;7.75;3.40;;;13.30;99.90;;;;;;5116441;27;20057;-73
2021/06/06 02:05:29;;;;;;;11.40;2.75;;;13.10;99.90;;;;;;5120076;27;20067;-72
2021/06/06 02:07:56;;;;;;;4.78;2.17;;;13.10;99.90;;;;;;5121884;27;20023;-73
2021/06/06 02:10:36;;;;;;;9.55;5.05;;;13.10;99.90;;;;;;5119800;27;20449;-72
2021/06/06 02:13:08;;;;;;;10.35;4.57;;;12.90;99.90;;;;;;5098006;27;20031;-73
2021/06/06 02:15:36;;;;;;;2.97;1.20;;;13.00;99.90;;;;;;5123799;27;20042;-73
2021/06/06 02:18:03;;;;;;;4.25;1.40;;;13.00;99.90;;;;;;5096290;27;20082;-73
2021/06/06 02:20:36;;;;;;;4.70;1.20;;;13.00;99.90;;;;;;5112134;27;20039;-73
2021/06/06 02:23:03;;;;;;;4.40;1.40;;;13.00;99.90;;;;;;5116652;27;20027;-73
2021/06/06 02:25:29;;;;;;;6.50;1.30;;;13.00;99.90;;;;;;5099885;27;20062;-73
2021/06/06 02:28:05;;;;;;;2.83;1.10;;;13.00;99.90;;;;;;5117602;27;20026;-73
2021/06/06 02:31:07;;;;;;;2.67;1.10;;;13.10;99.90;;;;;;5119941;27;20043;-73
2021/06/06 02:33:36;;;;;;;;;;;13.10;99.90;;;;;;5116114;27;20027;-73
2021/06/06 02:36:06;;;;;;;4.72;1.20;;;13.00;99.90;;;;;;5109724;27;19915;-72
2021/06/06 02:38:49;;;;;;;2.67;1.20;;;12.90;99.90;;;;;;5097566;27;20039;-73
2021/06/06 02:41:36;;;;;;;2.60;1.30;;;13.00;99.90;;;;;;5125110;27;20156;-73
2021/06/06 02:44:10;;;;;;;4.18;1.10;;;13.00;99.90;;;;;;5116024;27;20480;-73
2021/06/06 02:46:38;;;;;;;5.90;1.83;;;13.00;99.90;;;;;;5117447;27;20612;-73
2021/06/06 02:49:12;;;;;;;6.03;2.13;;;12.90;99.90;;;;;;5097347;27;20032;-73
2021/06/06 02:51:51;;;;;;;5.75;1.63;;;13.00;99.90;;;;;;5098603;27;20495;-73
2021/06/06 02:54:25;;;;;;;5.93;1.30;;;13.00;99.90;;;;;;5112004;27;20067;-73
2021/06/06 02:56:55;;;;;;;3.38;1.30;;;13.00;99.90;;;;;;5113438;27;20801;-73
2021/06/06 02:59:32;;;;;;;2.72;0.95;;;12.90;99.90;;;;;;5112430;27;20035;-73
2021/06/06 03:02:06;;;;;;;3.35;1.30;;;12.90;99.90;;;;;;5106038;27;20434;-73
2021/06/06 03:04:34;;;;;;;4.82;1.20;;;13.00;99.90;;;;;;5115537;27;20042;-73
2021/06/06 03:07:07;;;;;;;3.72;1.40;;;13.00;99.90;;;;;;5117301;27;20476;-72
2021/06/06 03:09:33;;;;;;;4.10;1.35;;;13.00;99.90;;;;;;5115811;27;20822;-72
2021/06/06 03:12:05;;;;;;;6.20;1.17;;;13.00;99.90;;;;;;5108841;27;20036;-72
2021/06/06 03:14:33;;;;;;;4.90;1.33;;;13.00;99.90;;;;;;5093510;27;20126;-73
2021/06/06 03:17:01;;;;;;;2.38;1.20;;;13.00;99.90;;;;;;5104508;27;20047;-73
2021/06/06 03:19:30;;;;;;;2.95;1.20;;;13.10;99.90;;;;;;5097209;27;20037;-72
2021/06/06 03:21:57;;;;;;;2.17;1.10;;;13.10;99.90;;;;;;5114173;27;20023;-72
2021/06/06 03:24:25;;;;;;;6.85;1.10;;;13.10;99.90;;;;;;5115983;27;20207;-72
2021/06/06 03:26:52;;;;;;;4.07;1.55;;;13.10;99.90;;;;;;5115981;27;20059;-73
2021/06/06 03:29:22;;;;;;;4.95;1.80;;;13.10;99.90;;;;;;5112184;27;20076;-73
2021/06/06 03:31:55;;;;;;;3.28;1.58;;;13.10;99.90;;;;;;5111631;27;20286;-72
2021/06/06 03:34:22;;;;;;;4.40;1.38;;;13.10;99.90;;;;;;5112140;27;20439;-72
2021/06/06 03:36:48;;;;;;;3.38;1.00;;;13.10;99.90;;;;;;5093302;28;20036;-72
2021/06/06 03:39:17;;;;;;;4.07;1.20;;;13.20;99.90;;;;;;5113263;27;20431;-72
2021/06/06 03:41:44;;;;;;;4.38;0.85;;;13.20;99.90;;;;;;5119810;27;20023;-73
2021/06/06 03:44:10;;;;;;;4.88;0.70;;;13.10;99.90;;;;;;5113495;27;20028;-72
2021/06/06 03:46:38;;;;;;;2.50;0.82;;;13.20;99.90;;;;;;5118143;27;20032;-72
2021/06/06 03:49:05;;;;;;;3.35;0.90;;;13.20;99.90;;;;;;5114464;27;20103;-73
2021/06/06 03:51:32;;;;;;;4.32;0.80;;;13.20;99.90;;;;;;5116782;27;20042;-73
2021/06/06 03:53:57;;;;;;;3.00;0.80;;;13.20;99.90;;;;;;5115024;27;20059;-73
2021/06/06 03:56:23;;;;;;;4.50;1.38;;;13.20;99.90;;;;;;5097379;27;20055;-73
2021/06/06 03:58:49;;;;;;;5.18;1.63;;;13.20;99.90;;;;;;5097656;27;20605;-73
2021/06/06 04:01:16;;;;;;;6.72;1.58;;;13.30;99.90;;;;;;5111222;27;20028;-73
2021/06/06 04:03:42;;;;;;;4.57;1.40;;;13.30;99.90;;;;;;5092894;27;20034;-72
2021/06/06 04:06:07;;;;;;;2.90;1.30;;;13.40;99.90;;;;;;5112818;27;20031;-73
2021/06/06 04:08:34;;;;;;;5.25;1.27;;;13.40;99.90;;;;;;5118652;27;20483;-72
2021/06/06 04:11:00;;;;;;;3.50;1.55;;;13.40;99.90;;;;;;5113228;27;20059;-72
2021/06/06 04:13:26;;;;;;;4.68;1.42;;;13.40;99.90;;;;;;5109538;27;20076;-72
2021/06/06 04:15:52;;;;;;;7.72;1.58;;;13.40;99.90;;;;;;5112288;28;20039;-73
2021/06/06 04:18:24;;;;;;;5.45;1.60;;;13.50;99.90;;;;;;5119052;28;20426;-72
2021/06/06 04:20:52;;;;;;;5.80;1.60;;;13.50;99.90;;;;;;5111827;28;20104;-72
2021/06/06 04:23:19;;;;;;;6.05;1.50;;;13.50;99.90;;;;;;5115417;28;20081;-72
2021/06/06 04:25:45;;;;;;;2.40;1.10;;;13.50;99.90;;;;;;5112049;28;20035;-73
2021/06/06 04:28:11;;;;;;;5.40;1.23;;;13.50;99.90;;;;;;5110675;28;20122;-72
2021/06/06 04:30:38;;;;;;;3.40;1.20;;;13.50;99.90;;;;;;5112048;28;20039;-72
2021/06/06 04:33:07;;;;;;;4.28;1.00;;;13.60;99.90;;;;;;5118383;28;20023;-72
2021/06/06 04:35:38;;;;;;;4.15;1.08;;;13.60;99.90;;;;;;5114204;28;20059;-72
2021/06/06 04:38:04;;;;;;;3.13;1.10;;;13.60;99.90;;;;;;5118443;28;20046;-72
2021/06/06 04:40:31;;;;;;;3.78;1.23;;;13.60;99.90;;;;;;5109700;28;20357;-72
2021/06/06 04:42:56;;;;;;;7.28;1.35;;;13.70;99.90;;;;;;5111226;27;20196;-72
2021/06/06 04:45:22;;;;;;;2.15;0.75;;;13.70;99.90;;;;;;5120615;28;20062;-73
2021/06/06 04:47:48;;;;;;;2.55;1.00;;;13.70;99.90;;;;;;5120018;28;20072;-72
2021/06/06 04:50:15;;;;;;;4.97;1.00;;;13.80;99.90;;;;;;5120631;27;20464;-72
2021/06/06 04:52:41;;;;;;;5.72;1.58;;;13.80;99.90;;;;;;5120127;28;20035;-72
2021/06/06 04:55:12;;;;;;;3.63;1.60;;;13.90;99.90;;;;;;5115140;28;20514;-73
2021/06/06 04:57:39;;;;;;;2.70;1.33;;;13.90;99.90;;;;;;5120420;28;20280;-72
2021/06/06 05:00:12;;;;;;;2.50;0.93;;;13.90;99.90;;;;;;5119558;28;20032;-72
2021/06/06 05:02:38;;;;;;;4.55;0.77;;;13.90;99.90;;;;;;5119731;27;20019;-72
2021/06/06 05:05:07;;;;;;;4.55;0.80;;;14.00;99.90;;;;;;5123351;27;20065;-72
2021/06/06 05:07:33;;;;;;;4.78;0.82;;;14.00;99.90;;;;;;5119578;27;20023;-72
2021/06/06 05:09:59;;;;;;;9.77;1.23;;;14.00;99.90;;;;;;5102043;27;20084;-73
2021/06/06 05:12:24;;;;;;;2.88;0.95;;;14.00;99.90;;;;;;5105870;27;20024;-72
2021/06/06 05:14:50;;;;;;;6.18;1.48;;;14.10;99.90;;;;;;5113613;27;20104;-73
2021/06/06 05:17:16;;;;;;;7.90;1.80;;;14.20;99.90;;;;;;5121479;27;20105;-73
2021/06/06 05:19:41;;;;;;;3.97;1.40;;;14.30;99.90;;;;;;5127741;27;20130;-72
2021/06/06 05:22:07;;;;;;;6.82;2.70;;;14.40;99.90;;;;;;5126608;27;20050;-72
2021/06/06 05:24:33;;;;;;;6.88;3.85;;;14.60;99.90;;;;;;5116788;27;20035;-73
2021/06/06 05:26:58;;;;;;;4.68;2.03;;;14.80;99.90;;;;;;5108440;27;20031;-73
2021/06/06 05:29:24;;;;;;;4.53;1.40;;;15.10;99.90;;;;;;5117137;27;20141;-73
2021/06/06 05:31:50;;;;;;;8.68;1.05;;;15.40;99.90;;;;;;5107979;27;20073;-73
2021/06/06 05:34:17;;;;;;;8.63;1.10;;;15.70;99.90;;;;;;5117268;27;20395;-73
2021/06/06 05:36:43;;;;;;;4.47;0.75;;;15.90;99.90;;;;;;5124719;27;20029;-73
2021/06/06 05:39:09;;;;;;;2.38;1.00;;;16.10;99.90;;;;;;5116992;27;20054;-73
2021/06/06 05:41:35;;;;;;;2.88;0.80;;;16.20;99.90;;;;;;5120042;27;20472;-74
2021/06/06 05:44:01;;;;;;;7.80;1.33;;;15.90;99.90;;;;;;5125522;27;20031;-74
2021/06/06 05:46:27;;;;;;;7.20;1.30;;;15.70;99.90;;;;;;5122552;27;20363;-74
2021/06/06 05:48:53;;;;;;;3.38;0.98;;;15.60;99.90;;;;;;5119192;27;20345;-74
2021/06/06 05:51:19;;;;;;;4.40;1.30;;;15.70;99.90;;;;;;5113663;27;20046;-74
2021/06/06 05:53:45;;;;;;;8.52;1.67;;;15.50;99.90;;;;;;5114842;27;20115;-74
2021/06/06 05:56:12;;;;;;;2.22;1.13;;;15.40;99.90;;;;;;5122156;27;20138;-74
2021/06/06 05:58:38;;;;;;;2.25;1.20;;;15.40;99.90;;;;;;5114528;27;20032;-74
2021/06/06 06:01:04;;;;;;;6.43;1.25;;;15.40;99.90;;;;;;5105473;27;20032;-74
2021/06/06 06:03:30;;;;;;;4.25;1.00;;;15.80;99.90;;;;;;5099176;27;20069;-74
2021/06/06 06:05:56;;;;;;;4.20;1.25;;;15.70;99.90;;;;;;5097450;27;20134;-74
2021/06/06 06:08:26;;;;;;;7.03;1.33;;;15.70;99.90;;;;;;5125372;27;20043;-74
2021/06/06 06:10:54;;;;;;;5.22;1.30;;;15.50;99.90;;;;;;5126702;27;20380;-74
2021/06/06 06:13:23;;;;;;;4.53;1.17;;;15.30;99.90;;;;;;5116135;27;20031;-74
2021/06/06 06:15:49;;;;;;;7.05;1.10;;;15.70;99.90;;;;;;5114138;27;20501;-75
2021/06/06 06:18:25;;;;;;;2.08;1.08;;;16.00;99.90;;;;;;5123127;27;21745;-74
2021/06/06 06:20:51;;;;;;;3.60;1.10;;;16.50;99.90;;;;;;5121444;27;20032;-75
2021/06/06 06:23:17;;;;;;;4.47;1.10;;;17.00;99.90;;;;;;5117257;27;20077;-75
2021/06/06 06:25:44;;;;;;;6.82;1.10;;;17.40;99.90;;;;;;5110617;27;20428;-75
2021/06/06 06:28:10;;;;;;;2.58;0.93;;;17.60;99.90;;;;;;5112817;27;20050;-75
2021/06/06 06:30:39;;;;;;;3.47;1.05;;;18.00;99.90;;;;;;5096030;27;20134;-75
2021/06/06 06:33:06;;;;;;;3.75;1.33;;;18.30;99.90;;;;;;5111612;27;20050;-75
2021/06/06 06:35:33;;;;;;;6.10;0.90;;;18.50;99.90;;;;;;5112109;27;20031;-75
2021/06/06 06:37:59;;;;;;;3.67;0.85;;;18.30;99.90;;;;;;5111462;27;20031;-75
2021/06/06 06:40:25;;;;;;;3.22;0.80;;;18.70;99.90;;;;;;5111955;27;20426;-75
2021/06/06 06:42:54;;;;;;;2.28;0.90;;;18.90;99.90;;;;;;5118440;27;20088;-75
2021/06/06 06:45:23;;;;;;;4.38;1.23;;;18.80;99.90;;;;;;5116059;27;20028;-75
2021/06/06 06:47:48;;;;;;;1.65;0.70;;;19.10;99.90;;;;;;5113102;27;20532;-75
2021/06/06 06:50:16;;;;;;;4.60;1.00;;;19.20;99.90;;;;;;5107620;27;20114;-76
2021/06/06 06:52:42;;;;;;;2.63;1.00;;;19.20;99.90;;;;;;5118217;27;20035;-74
2021/06/06 06:55:14;;;;;;;2.17;0.98;;;19.60;99.90;;;;;;5105983;27;20062;-75
2021/06/06 06:57:41;;;;;;;4.32;1.02;;;19.60;99.90;;;;;;5114813;27;20083;-76
2021/06/06 07:00:11;;;;;;;1.98;0.85;;;19.50;99.90;;;;;;5110892;27;20042;-75
2021/06/06 07:02:37;;;;;;;3.78;0.90;;;19.70;99.90;;;;;;5112881;27;20043;-76
2021/06/06 07:05:04;;;;;;;6.82;1.00;;;19.90;99.90;;;;;;5103725;27;20039;-76
2021/06/06 07:07:30;;;;;;;2.80;1.00;;;19.70;99.90;;;;;;5118431;27;20041;-74
2021/06/06 07:09:56;;;;;;;5.28;1.02;;;19.10;99.90;;;;;;5113906;27;20039;-74
2021/06/06 07:12:21;;;;;;;3.55;0.90;;;19.50;99.90;;;;;;5116770;27;20106;-74
2021/06/06 07:14:47;;;;;;;2.90;1.00;;;19.70;99.90;;;;;;5110956;27;20066;-74
2021/06/06 07:17:12;;;;;;;4.10;1.08;;;19.40;99.90;;;;;;5116644;27;20329;-74
2021/06/06 07:19:38;;;;;;;3.00;0.70;;;19.90;99.90;;;;;;5117850;27;20509;-75
2021/06/06 07:22:04;;;;;;;5.80;0.95;;;20.10;99.90;;;;;;5115166;27;20035;-74
2021/06/06 07:24:30;;;;;;;3.17;0.90;;;19.90;99.90;;;;;;5115619;27;20511;-74
2021/06/06 07:26:56;;;;;;;3.25;0.90;;;20.00;99.90;;;;;;5108607;27;20118;-74
2021/06/06 07:29:24;;;;;;;3.22;0.80;;;19.70;99.90;;;;;;5110859;27;20402;-74
2021/06/06 07:31:55;;;;;;;3.75;1.10;;;19.40;99.90;;;;;;5109467;27;20039;-74
2021/06/06 07:34:22;;;;;;;6.45;1.00;;;19.50;99.90;;;;;;5109241;27;20327;-74
2021/06/06 07:36:56;;;;;;;2.95;0.90;;;19.80;99.90;;;;;;5118813;27;20030;-74
2021/06/06 07:39:22;;;;;;;1.55;0.98;;;20.10;99.90;;;;;;5120251;27;20083;-74
2021/06/06 07:41:48;;;;;;;2.20;1.10;;;20.50;99.90;;;;;;5116234;27;20484;-74
2021/06/06 07:44:15;;;;;;;3.17;1.08;;;20.80;99.90;;;;;;5117877;27;20031;-74
2021/06/06 07:46:41;;;;;;;2.53;1.10;;;21.00;99.90;;;;;;5122143;27;20030;-74
2021/06/06 07:49:07;;;;;;;3.58;1.02;;;21.10;99.90;;;;;;5120024;27;20406;-74
2021/06/06 07:51:34;;;;;;;2.45;0.90;;;21.00;99.90;;;;;;5110039;27;20083;-74
2021/06/06 07:54:00;;;;;;;4.25;0.80;;;21.50;99.90;;;;;;5114163;27;20058;-74
2021/06/06 07:56:26;;;;;;;1.95;0.73;;;21.90;99.90;;;;;;5116122;27;20150;-75
2021/06/06 07:58:52;;;;;;;2.40;1.00;;;21.50;99.90;;;;;;5118826;27;20758;-74
2021/06/06 08:01:18;;;;;;;1.73;0.52;;;21.20;99.90;;;;;;5115537;27;20414;-74
2021/06/06 08:03:44;;;;;;;2.15;0.60;;;21.30;99.90;;;;;;5115718;27;20025;-74
2021/06/06 08:06:11;;;;;;;1.40;0.50;;;21.10;99.90;;;;;;5108169;27;20456;-74
2021/06/06 08:08:37;;;;;;;3.47;0.77;;;20.80;99.90;;;;;;5111228;27;20123;-74
2021/06/06 08:11:04;;;;;;;2.78;0.82;;;21.50;99.90;;;;;;5111536;27;20468;-74
2021/06/06 08:13:30;;;;;;;0.82;0.50;;;22.10;99.90;;;;;;5112283;27;20036;-74
2021/06/06 08:15:57;;;;;;;5.95;1.65;;;22.50;99.90;;;;;;5125635;27;20046;-75
2021/06/06 08:18:31;;;;;;;4.28;0.70;;;21.80;99.90;;;;;;5110547;28;20145;-74
2021/06/06 08:21:21;;;;;;;2.08;0.80;;;22.30;99.90;;;;;;5120747;28;20493;-74
2021/06/06 08:23:47;;;;;;;2.17;0.70;;;23.00;99.90;;;;;;5123405;27;20031;-74
2021/06/06 08:26:17;;;;;;;2.83;0.70;;;23.20;99.90;;;;;;5119857;28;20036;-74
2021/06/06 08:28:43;;;;;;;1.58;0.50;;;21.50;99.90;;;;;;5108691;28;20072;-74
2021/06/06 08:31:15;;;;;;;3.13;0.70;;;21.30;99.90;;;;;;5114330;28;20035;-74
2021/06/06 08:33:41;;;;;;;1.20;0.63;;;21.50;99.90;;;;;;5118592;27;20029;-74
2021/06/06 08:36:18;;;;;;;4.78;0.80;;;21.50;99.90;;;;;;5122658;28;20197;-74
2021/06/06 08:38:44;;;;;;;2.38;0.70;;;21.00;99.90;;;;;;5116901;28;20031;-74
2021/06/06 08:41:40;;;;;;;3.40;0.70;;;21.70;99.90;;;;;;5119069;27;20031;-74
2021/06/06 08:44:16;;;;;;;1.85;0.70;;;22.10;99.90;;;;;;5112541;27;20031;-74
2021/06/06 08:47:00;;;;;;;4.03;1.02;;;22.30;99.90;;;;;;5121556;27;20041;-74
2021/06/06 08:49:35;;;;;;;2.03;0.90;;;23.20;99.90;;;;;;5121995;27;20135;-74
2021/06/06 08:52:13;;;;;;;3.15;0.80;;;22.40;99.90;;;;;;5120042;27;20069;-74
2021/06/06 08:54:54;;;;;;;2.05;0.80;;;23.50;99.90;;;;;;5121050;27;20439;-73
2021/06/06 08:57:24;;;;;;;3.90;0.60;;;24.00;99.90;;;;;;5123950;27;20027;-73
2021/06/06 08:59:53;;;;;;;2.35;0.80;;;24.10;99.90;;;;;;5116154;27;20329;-74
2021/06/06 09:02:22;;;;;;;3.65;0.50;;;24.60;99.90;;;;;;5126240;27;20027;-74
2021/06/06 09:04:49;;;;;;;2.80;0.80;;;24.50;99.90;;;;;;5127008;27;20031;-74
2021/06/06 09:07:34;;;;;;;1.23;0.60;;;23.90;99.90;;;;;;5127101;27;20023;-74
2021/06/06 09:10:11;;;;;;;2.05;0.70;;;22.50;99.90;;;;;;5126262;27;20035;-74
2021/06/06 09:12:37;;;;;;;1.92;0.50;;;22.30;99.90;;;;;;5117484;27;20104;-74
2021/06/06 09:15:05;;;;;;;5.90;0.70;;;23.30;99.90;;;;;;5121247;27;20035;-74
2021/06/06 09:17:47;;;;;;;3.58;0.50;;;23.30;99.90;;;;;;5123123;27;20037;-74
2021/06/06 09:20:35;;;;;;;1.65;0.50;;;24.20;99.90;;;;;;5123278;27;20389;-74
2021/06/06 09:23:16;;;;;;;3.97;0.88;;;24.40;99.90;;;;;;5118998;27;20028;-74
2021/06/06 09:25:51;;;;;;;2.13;0.50;;;22.90;99.90;;;;;;5121080;27;20038;-74
2021/06/06 09:28:25;;;;;;;2.45;0.60;;;22.00;99.90;;;;;;5121088;27;20464;-74
2021/06/06 09:31:17;;;;;;;3.03;0.70;;;21.90;99.90;;;;;;5126413;27;20356;-74
2021/06/06 09:34:02;;;;;;;1.48;0.45;;;21.50;99.90;;;;;;5102384;27;20345;-74
2021/06/06 09:36:40;;;;;;;2.40;0.60;;;22.20;99.90;;;;;;5123718;27;20066;-74
2021/06/06 09:39:20;;;;;;;2.05;0.57;;;22.60;99.90;;;;;;5126401;27;20023;-74
2021/06/06 09:41:58;;;;;;;1.33;0.40;;;22.50;99.90;;;;;;5124201;27;20023;-74
2021/06/06 09:44:30;;;;;;;2.63;0.40;;;22.70;99.90;;;;;;5122776;27;20030;-74
2021/06/06 09:47:04;;;;;;;3.10;0.40;;;22.70;99.90;;;;;;5124655;27;20068;-74
2021/06/06 09:49:36;;;;;;;2.63;0.50;;;23.20;99.90;;;;;;5117964;27;20088;-74
2021/06/06 09:52:29;;;;;;;5.30;0.50;;;23.30;99.90;;;;;;5122406;27;20027;-74
2021/06/06 09:54:58;;;;;;;0.57;0.43;;;23.80;99.90;;;;;;5129228;27;20047;-74
2021/06/06 09:57:27;;;;;;;2.22;0.40;;;23.20;99.90;;;;;;5126071;27;20077;-74
2021/06/06 10:00:08;;;;;;;1.73;0.60;;;23.20;99.90;;;;;;5121584;27;20043;-74
2021/06/06 10:02:59;;;;;;;2.08;0.43;;;22.80;99.90;;;;;;5103581;27;20035;-74
2021/06/06 10:05:29;;;;;;;5.05;2.88;;;23.30;99.90;;;;;;5117679;27;20027;-74
2021/06/06 10:08:27;;;;;;;2.25;0.90;;;23.30;99.90;;;;;;5121958;27;20459;-74
2021/06/06 10:11:16;;;;;;;1.17;0.38;;;23.10;99.90;;;;;;5123689;27;20046;-74
2021/06/06 10:13:53;;;;;;;3.80;0.52;;;23.30;99.90;;;;;;5119967;27;20042;-74
2021/06/06 10:16:25;;;;;;;1.48;0.35;;;23.60;99.90;;;;;;5123627;27;20121;-74
2021/06/06 10:19:08;;;;;;;0.50;0.30;;;23.40;99.90;;;;;;5107290;27;20050;-74
2021/06/06 10:21:36;;;;;;;1.27;0.43;;;23.20;99.90;;;;;;5127260;27;20031;-74
2021/06/06 10:24:15;;;;;;;3.33;0.50;;;23.20;99.90;;;;;;5109906;27;20373;-74
2021/06/06 10:26:52;;;;;;;1.23;0.40;;;23.60;99.90;;;;;;5122957;27;20106;-74
2021/06/06 10:29:17;;;;;;;1.08;0.50;;;24.10;99.90;;;;;;5116806;27;20111;-74
2021/06/06 10:31:46;;;;;;;2.85;0.47;;;23.90;99.90;;;;;;5125516;27;20261;-74
2021/06/06 10:34:21;;;;;;;2.17;0.40;;;24.20;99.90;;;;;;5123738;27;20023;-74
2021/06/06 10:36:46;;;;;;;2.33;0.40;;;24.40;99.90;;;;;;5117497;27;20023;-74
2021/06/06 10:39:22;;;;;;;0.73;0.30;;;24.40;99.90;;;;;;5121493;27;20050;-74
2021/06/06 10:42:13;;;;;;;2.22;0.40;;;24.10;99.90;;;;;;5120022;27;20447;-74
2021/06/06 10:44:53;;;;;;;1.23;0.50;;;23.40;99.90;;;;;;5114179;27;20031;-74
2021/06/06 10:47:50;;;;;;;1.00;0.30;;;24.10;99.90;;;;;;5114435;27;20499;-74
2021/06/06 10:50:29;;;;;;;3.00;0.40;;;23.80;99.90;;;;;;5123063;27;20050;-74
2021/06/06 10:53:10;;;;;;;4.85;0.63;;;24.00;99.90;;;;;;5120444;27;20476;-74
2021/06/06 10:55:56;;;;;;;2.40;0.32;;;24.10;99.90;;;;;;5117931;27;20055;-74
2021/06/06 10:58:38;;;;;;;2.60;0.50;;;24.40;99.90;;;;;;5120967;27;20042;-74
2021/06/06 11:01:18;;;;;;;1.05;0.45;;;23.40;99.90;;;;;;5102536;27;20378;-74
2021/06/06 11:03:46;;;;;;;1.30;0.38;;;23.60;99.90;;;;;;5117653;27;20023;-74
2021/06/06 11:06:31;;;;;;;1.05;0.47;;;23.70;99.90;;;;;;5122728;27;20770;-73
2021/06/06 11:08:58;;;;;;;2.88;0.50;;;23.50;99.90;;;;;;5100759;27;20075;-74
2021/06/06 11:11:35;;;;;;;1.52;0.50;;;24.00;99.90;;;;;;5122258;27;20031;-74
2021/06/06 11:14:12;;;;;;;1.45;0.43;;;23.80;99.90;;;;;;5120569;27;20039;-73
2021/06/06 11:16:40;;;;;;;1.33;0.50;;;23.50;99.90;;;;;;5122013;27;20472;-72
2021/06/06 11:19:21;;;;;;;1.17;0.30;;;24.20;99.90;;;;;;5119592;27;20628;-73
2021/06/06 11:21:53;;;;;;;3.20;0.40;;;23.60;99.90;;;;;;5120960;27;20043;-72
2021/06/06 11:24:38;;;;;;;6.88;0.70;;;24.20;99.90;;;;;;5120347;27;20019;-73
2021/06/06 11:27:22;;;;;;;1.30;0.30;;;23.80;99.90;;;;;;5107049;27;20059;-73
2021/06/06 11:29:48;;;;;;;1.65;0.30;;;24.30;99.90;;;;;;5101626;27;20067;-73
2021/06/06 11:32:18;;;;;;;0.95;0.30;;;24.50;99.90;;;;;;5122764;27;20106;-73
2021/06/06 11:34:48;;;;;;;0.52;0.20;;;24.70;99.90;;;;;;5122489;27;20023;-73
2021/06/06 11:37:38;;;;;;;0.80;0.30;;;24.30;99.90;;;;;;5125451;27;20034;-73
2021/06/06 11:40:24;;;;;;;0.88;0.35;;;24.40;99.90;;;;;;5121724;27;20084;-73
2021/06/06 11:42:52;;;;;;;1.20;0.40;;;24.60;99.90;;;;;;5124240;27;20414;-73
2021/06/06 11:45:35;;;;;;;1.35;0.38;;;24.70;99.90;;;;;;5118884;27;20510;-74
2021/06/06 11:48:08;;;;;;;1.75;0.47;;;24.60;99.90;;;;;;5117125;27;20034;-74
2021/06/06 11:50:42;;;;;;;1.45;0.30;;;24.80;99.90;;;;;;5118727;27;20035;-74
2021/06/06 11:53:21;;;;;;;2.05;0.50;;;24.90;99.90;;;;;;5120545;27;20038;-73
2021/06/06 11:55:52;;;;;;;1.38;0.30;;;24.70;99.90;;;;;;5114027;27;20052;-73
2021/06/06 11:58:37;;;;;;;1.58;0.40;;;24.40;99.50;;;;;;5100241;27;20551;-74
2021/06/06 12:01:05;;;;;;;3.13;0.60;;;24.30;99.90;;;;;;5119546;27;20114;-73
2021/06/06 12:03:34;;;;;;;3.53;0.40;;;23.40;99.70;;;;;;5114897;27;20457;-73
2021/06/06 12:06:11;;;;;;;1.27;0.28;;;24.00;99.90;;;;;;5110074;27;20104;-72
2021/06/06 12:08:39;;;;;;;1.65;0.60;;;24.20;99.90;;;;;;5106946;27;20553;-73
2021/06/06 12:11:22;;;;;;;1.80;0.40;;;24.60;99.90;;;;;;5093922;27;20420;-73
2021/06/06 12:13:54;;;;;;;1.20;0.30;;;24.80;99.90;;;;;;5090974;28;20062;-73
2021/06/06 12:16:24;;;;;;;1.90;0.40;;;24.60;99.80;;;;;;5110568;27;20355;-73
2021/06/06 12:19:10;;;;;;;1.60;0.43;;;24.40;99.90;;;;;;5119397;28;20042;-73
2021/06/06 12:21:38;;;;;;;1.00;0.30;;;24.70;99.20;;;;;;5110679;27;20469;-73
2021/06/06 12:24:24;;;;;;;3.42;0.30;;;24.90;99.40;;;;;;5111240;28;20035;-73
2021/06/06 12:26:54;;;;;;;1.85;0.40;;;25.30;99.70;;;;;;5111388;28;20433;-73
2021/06/06 12:29:50;;;;;;;1.77;0.40;;;25.40;99.50;;;;;;5115663;28;20059;-73
2021/06/06 12:32:38;;;;;;;1.40;0.32;;;25.40;98.50;;;;;;5112474;28;20035;-73
2021/06/06 12:35:10;;;;;;;1.55;0.30;;;25.10;99.00;;;;;;5112541;28;20420;-73
2021/06/06 12:37:38;;;;;;;0.30;0.20;;;24.80;99.30;;;;;;5108269;28;20051;-73
2021/06/06 12:40:04;;;;;;;0.80;0.30;;;24.40;98.40;;;;;;5115093;28;20110;-73
2021/06/06 12:42:30;;;;;;;1.02;0.30;;;24.60;98.80;;;;;;5113823;27;20035;-73
2021/06/06 12:45:03;;;;;;;1.60;0.30;;;24.50;98.70;;;;;;5114572;28;20479;-73
2021/06/06 12:47:37;;;;;;;0.82;0.38;;;24.40;99.10;;;;;;5114938;28;20648;-73
2021/06/06 12:50:14;;;;;;;1.23;0.30;;;24.20;99.00;;;;;;5114343;28;20067;-73
2021/06/06 12:52:54;;;;;;;1.45;0.30;;;24.40;99.00;;;;;;5113961;28;20023;-73
2021/06/06 12:55:30;;;;;;;2.20;0.40;;;24.60;98.90;;;;;;5105174;28;20058;-73
2021/06/06 12:58:03;;;;;;;0.68;0.30;;;25.10;99.60;;;;;;5111468;28;20499;-73
2021/06/06 13:00:34;;;;;;;2.80;0.20;;;25.20;97.00;;;;;;5116520;28;20035;-73
2021/06/06 13:03:32;;;;;;;1.02;0.20;;;25.40;96.50;;;;;;5093427;28;20126;-73
2021/06/06 13:06:25;;;;;;;1.38;0.40;;;25.30;96.70;;;;;;5113689;28;20035;-73
2021/06/06 13:08:52;;;;;;;1.77;0.52;;;25.30;97.40;;;;;;5118222;28;20092;-73
2021/06/06 13:11:23;;;;;;;2.88;0.57;;;25.20;96.90;;;;;;5109354;28;20039;-73